createdAt,value
2022-09-07T00:01:14.652Z,13.18
2022-09-07T00:03:41.619Z,15.27
2022-09-07T00:06:10.560Z,12.13
2022-09-07T00:08:38.208Z,14.00
2022-09-07T00:11:07.711Z,13.27
2022-09-07T00:13:37.308Z,16.15
2022-09-07T00:16:10.115Z,13.38
2022-09-07T00:18:37.390Z,11.80
2022-09-07T00:21:06.925Z,11.55
2022-09-07T00:23:35.015Z,13.50
2022-09-07T00:26:03.910Z,11.32
2022-09-07T00:28:31.536Z,13.57
2022-09-07T00:30:58.595Z,16.60
2022-09-07T00:33:25.725Z,12.45
2022-09-07T00:35:52.612Z,14.30
2022-09-07T00:38:19.603Z,16.73
2022-09-07T00:40:47.811Z,14.00
2022-09-07T00:43:18.511Z,11.40
2022-09-07T00:45:45.340Z,10.27
2022-09-07T00:48:17.107Z,13.55
2022-09-07T00:50:51.399Z,12.35
2022-09-07T00:53:24.995Z,12.48
2022-09-07T00:55:53.084Z,12.00
2022-09-07T00:58:21.686Z,13.90
2022-09-07T01:00:49.759Z,12.40
2022-09-07T01:03:19.190Z,14.70
2022-09-07T01:05:54.117Z,8.93
2022-09-07T01:08:21.500Z,14.68
2022-09-07T01:10:48.292Z,10.10
2022-09-07T01:13:17.965Z,11.80
2022-09-07T01:15:53.545Z,12.30
2022-09-07T01:18:32.041Z,12.82
2022-09-07T01:21:23.424Z,11.93
2022-09-07T01:23:56.249Z,12.05
2022-09-07T01:26:47.244Z,11.25
2022-09-07T01:29:54.535Z,12.25
2022-09-07T01:32:46.083Z,9.98
2022-09-07T01:35:31.633Z,14.38
2022-09-07T01:38:16.539Z,10.95
2022-09-07T01:40:51.458Z,9.48
2022-09-07T01:43:32.514Z,11.93
2022-09-07T01:48:26.736Z,7.60
2022-09-07T01:50:57.405Z,11.40
2022-09-07T01:53:26.171Z,9.70
2022-09-07T01:56:03.274Z,10.63
2022-09-07T01:58:51.782Z,12.18
2022-09-07T02:01:41.749Z,9.40
2022-09-07T02:04:12.308Z,10.32
2022-09-07T02:06:44.993Z,8.95
2022-09-07T02:09:32.865Z,8.65
2022-09-07T02:12:03.180Z,9.23
2022-09-07T02:14:41.495Z,14.25
2022-09-07T02:17:22.495Z,12.52
2022-09-07T02:22:21.242Z,10.43
2022-09-07T02:24:51.188Z,11.07
2022-09-07T02:27:21.380Z,13.27
2022-09-07T02:29:48.394Z,16.48
2022-09-07T02:32:15.517Z,16.35
2022-09-07T02:34:42.409Z,16.63
2022-09-07T02:37:10.108Z,17.45
2022-09-07T02:39:37.045Z,12.15
2022-09-07T02:42:04.008Z,14.57
2022-09-07T02:44:34.755Z,17.58
2022-09-07T02:47:08.219Z,13.85
2022-09-07T02:49:54.591Z,14.43
2022-09-07T02:52:37.200Z,16.48
2022-09-07T02:55:31.771Z,14.70
2022-09-07T02:58:20.149Z,16.00
2022-09-07T03:01:12.306Z,13.13
2022-09-07T03:03:48.236Z,14.15
2022-09-07T03:06:33.324Z,14.93
2022-09-07T03:09:02.366Z,15.43
2022-09-07T03:11:29.613Z,13.38
2022-09-07T03:14:13.754Z,13.73
2022-09-07T03:16:40.660Z,9.13
2022-09-07T03:19:07.580Z,8.95
2022-09-07T03:21:34.549Z,11.38
2022-09-07T03:24:01.799Z,11.80
2022-09-07T03:26:28.732Z,11.23
2022-09-07T03:28:55.543Z,10.15
2022-09-07T03:31:22.410Z,16.00
2022-09-07T03:33:49.223Z,11.25
2022-09-07T03:36:16.096Z,8.00
2022-09-07T03:38:42.856Z,11.13
2022-09-07T03:41:09.701Z,12.25
2022-09-07T03:43:36.581Z,11.60
2022-09-07T03:46:05.355Z,11.18
2022-09-07T03:48:33.746Z,6.65
2022-09-07T03:51:06.082Z,11.45
2022-09-07T03:53:34.331Z,6.72
2022-09-07T03:56:03.968Z,10.07
2022-09-07T03:58:32.139Z,9.00
2022-09-07T04:00:59.980Z,8.52
2022-09-07T04:03:27.171Z,9.80
2022-09-07T04:05:53.955Z,6.13
2022-09-07T04:08:26.028Z,8.02
2022-09-07T04:10:52.867Z,6.05
2022-09-07T04:13:19.697Z,7.05
2022-09-07T04:15:49.027Z,9.30
2022-09-07T04:18:17.978Z,9.75
2022-09-07T04:20:45.204Z,10.32
2022-09-07T04:23:12.681Z,9.20
2022-09-07T04:25:50.047Z,4.90
2022-09-07T04:28:18.232Z,6.25
2022-09-07T04:30:45.507Z,8.10
2022-09-07T04:33:13.435Z,6.10
2022-09-07T04:35:41.241Z,2.67
2022-09-07T04:38:16.032Z,1.92
2022-09-07T04:40:43.183Z,1.50
2022-09-07T04:43:13.078Z,1.90
2022-09-07T04:45:40.486Z,3.13
2022-09-07T04:48:07.551Z,2.50
2022-09-07T04:50:34.716Z,2.70
2022-09-07T04:53:01.530Z,2.75
2022-09-07T04:55:28.413Z,2.78
2022-09-07T04:57:55.198Z,2.60
2022-09-07T05:00:22.502Z,2.60
2022-09-07T05:02:49.364Z,2.53
2022-09-07T05:05:16.368Z,2.10
2022-09-07T05:07:43.249Z,1.70
2022-09-07T05:10:10.173Z,1.75
2022-09-07T05:12:36.984Z,1.58
2022-09-07T05:15:04.436Z,1.83
2022-09-07T05:17:31.325Z,2.58
2022-09-07T05:19:58.531Z,3.33
2022-09-07T05:22:25.579Z,2.28
2022-09-07T05:24:52.506Z,3.00
2022-09-07T05:27:19.384Z,2.47
2022-09-07T05:30:03.783Z,2.53
2022-09-07T05:32:31.972Z,2.40
2022-09-07T05:34:58.854Z,2.25
2022-09-07T05:37:25.690Z,2.35
2022-09-07T05:39:55.107Z,1.70
2022-09-07T05:42:22.254Z,2.17
2022-09-07T05:44:48.998Z,1.70
2022-09-07T05:47:15.897Z,2.17
2022-09-07T05:49:42.849Z,1.90
2022-09-07T05:52:10.278Z,0.98
2022-09-07T05:54:37.174Z,1.67
2022-09-07T05:57:04.419Z,1.63
2022-09-07T05:59:31.206Z,1.80
2022-09-07T06:01:58.095Z,1.50
2022-09-07T06:04:24.941Z,2.13
2022-09-07T06:07:20.207Z,2.22
2022-09-07T06:12:26.019Z,2.25
2022-09-07T06:14:52.874Z,2.15
2022-09-07T06:17:19.818Z,2.10
2022-09-07T06:19:46.613Z,1.60
2022-09-07T06:22:13.465Z,1.77
2022-09-07T06:24:40.338Z,1.52
2022-09-07T06:27:07.183Z,1.40
2022-09-07T06:29:34.024Z,1.55
2022-09-07T06:34:48.774Z,2.00
2022-09-07T06:37:16.815Z,2.10
2022-09-07T06:39:43.807Z,1.60
2022-09-07T06:42:10.694Z,2.42
2022-09-07T06:44:42.918Z,1.95
2022-09-07T06:47:10.786Z,3.03
2022-09-07T06:49:37.600Z,2.70
2022-09-07T06:52:04.569Z,2.30
2022-09-07T06:57:18.194Z,2.30
2022-09-07T06:59:45.012Z,2.70
2022-09-07T07:02:12.710Z,2.28
2022-09-07T07:04:41.128Z,2.33
2022-09-07T07:07:13.026Z,2.53
2022-09-07T07:09:40.239Z,2.33
2022-09-07T07:12:07.166Z,3.10
2022-09-07T07:14:37.267Z,2.85
2022-09-07T07:17:20.452Z,2.97
2022-09-07T07:19:47.267Z,3.25
2022-09-07T07:22:35.986Z,2.97
2022-09-07T07:25:01.167Z,2.88
2022-09-07T07:27:31.555Z,2.00
2022-09-07T07:29:58.369Z,1.70
2022-09-07T07:32:25.305Z,1.50
2022-09-07T07:34:52.116Z,1.48
2022-09-07T07:37:19.020Z,1.65
2022-09-07T07:42:34.338Z,1.65
2022-09-07T07:47:51.569Z,1.25
2022-09-07T07:50:34.650Z,1.50
2022-09-07T07:55:46.434Z,1.38
2022-09-07T07:58:13.217Z,1.65
2022-09-07T08:00:53.702Z,1.33
2022-09-07T08:03:22.741Z,1.30
2022-09-07T08:05:49.509Z,1.40
2022-09-07T08:08:16.583Z,1.30
2022-09-07T08:10:43.573Z,1.42
2022-09-07T08:13:10.422Z,1.27
2022-09-07T08:15:46.691Z,1.02
2022-09-07T08:18:15.713Z,1.08
2022-09-07T08:20:42.919Z,0.93
2022-09-07T08:23:10.279Z,1.30
2022-09-07T08:25:36.995Z,1.05
2022-09-07T08:28:04.199Z,1.20
2022-09-07T08:30:31.178Z,0.70
2022-09-07T08:32:57.943Z,0.80
2022-09-07T08:35:24.711Z,0.95
2022-09-07T08:37:51.517Z,0.80
2022-09-07T08:40:19.278Z,1.23
2022-09-07T08:43:03.893Z,0.75
2022-09-07T08:45:38.430Z,0.82
2022-09-07T08:48:05.342Z,0.70
2022-09-07T08:50:39.564Z,0.40
2022-09-07T08:53:16.855Z,0.80
2022-09-07T08:55:49.627Z,0.75
2022-09-07T08:58:45.384Z,0.90
2022-09-07T09:01:34.617Z,0.73
2022-09-07T09:04:18.691Z,0.60
2022-09-07T09:06:52.736Z,0.70
2022-09-07T09:09:26.569Z,0.80
2022-09-07T09:12:38.052Z,0.98
2022-09-07T09:16:01.811Z,0.77
2022-09-07T09:18:46.873Z,1.30
2022-09-07T09:21:16.212Z,1.33
2022-09-07T09:23:45.050Z,1.40
2022-09-07T09:26:31.948Z,1.85
2022-09-07T09:28:58.744Z,1.52
2022-09-07T09:31:33.729Z,2.47
2022-09-07T09:34:17.714Z,2.25
2022-09-07T09:36:49.559Z,2.78
2022-09-07T09:39:28.399Z,2.05
2022-09-07T09:42:02.187Z,2.78
2022-09-07T09:44:33.740Z,2.70
2022-09-07T09:49:48.705Z,3.38
2022-09-07T09:52:42.944Z,2.70
2022-09-07T10:03:59.402Z,4.70
2022-09-07T10:06:28.158Z,5.30
2022-09-07T10:08:59.695Z,4.90
2022-09-07T10:12:06.992Z,5.38
2022-09-07T10:14:45.045Z,4.60
2022-09-07T10:17:29.460Z,5.82
2022-09-07T10:20:20.083Z,5.50
2022-09-07T10:22:58.312Z,4.43
2022-09-07T10:25:33.246Z,6.47
2022-09-07T10:28:12.817Z,5.30
2022-09-07T10:31:04.207Z,6.22
2022-09-07T10:36:51.893Z,6.93
2022-09-07T10:39:24.890Z,8.00
2022-09-07T10:41:54.563Z,6.35
2022-09-07T10:44:48.317Z,5.70
2022-09-07T10:47:32.054Z,5.05
2022-09-07T10:50:24.464Z,5.72
2022-09-07T10:53:18.087Z,7.25
2022-09-07T10:55:53.478Z,6.18
2022-09-07T11:01:35.318Z,5.88
2022-09-07T11:04:04.567Z,6.85
2022-09-07T11:06:41.763Z,7.75
2022-09-07T11:09:26.796Z,6.95
2022-09-07T11:12:07.065Z,6.80
2022-09-07T11:14:47.029Z,6.45
2022-09-07T11:17:23.671Z,7.32
2022-09-07T11:19:55.605Z,6.45
2022-09-07T11:22:35.851Z,6.68
2022-09-07T11:25:35.857Z,7.23
2022-09-07T11:28:04.200Z,8.25
2022-09-07T11:30:36.455Z,7.97
2022-09-07T11:33:06.323Z,5.38
2022-09-07T11:35:52.005Z,6.78
2022-09-07T11:38:36.438Z,6.25
2022-09-07T11:41:18.872Z,6.50
2022-09-07T11:43:56.386Z,7.35
2022-09-07T11:46:35.244Z,6.68
2022-09-07T11:49:15.146Z,6.80
2022-09-07T11:52:05.782Z,7.15
2022-09-07T11:54:46.001Z,6.13
2022-09-07T11:57:15.923Z,5.70
2022-09-07T12:00:02.410Z,7.50
2022-09-07T12:03:02.362Z,5.93
2022-09-07T12:06:15.206Z,5.38
2022-09-07T12:08:54.284Z,5.78
2022-09-07T12:11:36.104Z,6.43
2022-09-07T12:14:12.128Z,5.97
2022-09-07T12:17:05.285Z,5.82
2022-09-07T12:19:32.234Z,5.38
2022-09-07T12:21:59.813Z,5.20
2022-09-07T12:24:33.641Z,5.47
2022-09-07T12:27:01.809Z,4.90
2022-09-07T12:29:30.373Z,4.35
2022-09-07T12:32:07.306Z,4.38
2022-09-07T12:34:34.373Z,3.78
2022-09-07T12:37:01.063Z,4.97
2022-09-07T12:39:29.252Z,4.53
2022-09-07T12:45:30.282Z,4.63
2022-09-07T12:48:02.720Z,5.07
2022-09-07T12:50:38.276Z,4.68
2022-09-07T12:53:13.494Z,3.97
2022-09-07T12:58:47.691Z,3.25
2022-09-07T13:01:44.428Z,3.45
2022-09-07T13:04:36.057Z,3.00
2022-09-07T13:07:40.035Z,3.30
2022-09-07T13:10:37.413Z,3.03
2022-09-07T13:14:01.886Z,3.42
2022-09-07T13:16:11.746Z,3.55
2022-09-07T13:21:09.437Z,3.35
2022-09-07T13:23:49.484Z,3.17
2022-09-07T13:26:54.014Z,3.47
2022-09-07T13:29:25.194Z,3.58
2022-09-07T13:32:04.760Z,3.13
2022-09-07T13:34:34.601Z,3.35
2022-09-07T13:37:02.596Z,2.38
2022-09-07T13:39:39.704Z,2.60
2022-09-07T13:42:06.821Z,2.20
2022-09-07T13:44:34.412Z,3.25
2022-09-07T13:47:17.851Z,2.67
2022-09-07T13:50:00.628Z,3.22
2022-09-07T13:52:42.328Z,2.45
2022-09-07T13:55:21.650Z,3.63
2022-09-07T13:58:13.816Z,2.42
2022-09-07T14:00:55.032Z,2.95
2022-09-07T14:03:23.387Z,2.58
2022-09-07T14:05:50.115Z,2.78
2022-09-07T14:08:28.154Z,2.65
2022-09-07T14:10:55.048Z,3.88
2022-09-07T14:13:21.797Z,2.33
2022-09-07T14:15:50.143Z,2.80
2022-09-07T14:18:31.125Z,3.08
2022-09-07T14:20:58.833Z,3.28
2022-09-07T14:23:31.062Z,3.08
2022-09-07T14:26:18.503Z,2.50
2022-09-07T14:28:48.249Z,3.42
2022-09-07T14:31:20.010Z,2.50
2022-09-07T14:33:51.703Z,2.55
2022-09-07T14:36:41.635Z,3.28
2022-09-07T14:39:07.334Z,2.75
2022-09-07T14:41:38.483Z,2.53
2022-09-07T14:44:05.725Z,2.67
2022-09-07T14:46:34.293Z,3.15
2022-09-07T14:49:04.467Z,2.53
2022-09-07T14:51:36.500Z,3.20
2022-09-07T14:54:07.877Z,2.90
2022-09-07T14:59:32.349Z,2.63
2022-09-07T15:02:35.676Z,2.83
2022-09-07T15:05:14.536Z,2.72
2022-09-07T15:07:57.913Z,3.47
2022-09-07T15:10:25.569Z,3.58
2022-09-07T15:12:55.090Z,3.03
2022-09-07T15:15:33.865Z,3.42
2022-09-07T15:18:07.785Z,2.72
2022-09-07T15:20:40.328Z,3.70
2022-09-07T15:23:12.805Z,3.05
2022-09-07T15:25:41.223Z,3.28
2022-09-07T15:34:02.820Z,2.47
2022-09-07T15:36:31.982Z,2.85
2022-09-07T15:38:59.897Z,2.60
2022-09-07T15:41:27.782Z,3.45
2022-09-07T15:43:54.698Z,3.78
2022-09-07T15:46:21.785Z,3.30
2022-09-07T15:48:53.929Z,2.72
2022-09-07T15:54:13.832Z,3.25
2022-09-07T15:56:42.698Z,3.25
2022-09-07T15:59:10.362Z,2.80
2022-09-07T16:01:54.785Z,3.88
2022-09-07T16:04:24.071Z,2.95
2022-09-07T16:06:51.117Z,2.97
2022-09-07T16:09:21.531Z,3.83
2022-09-07T16:14:18.010Z,3.22
2022-09-07T16:19:34.988Z,3.42
2022-09-07T16:22:03.262Z,2.78
2022-09-07T16:24:30.190Z,2.97
2022-09-07T16:26:57.031Z,3.78
2022-09-07T16:29:24.533Z,3.13
2022-09-07T16:34:39.801Z,3.00
2022-09-07T16:37:07.120Z,3.35
2022-09-07T16:39:34.286Z,3.45
2022-09-07T16:42:01.111Z,3.08
2022-09-07T16:44:27.859Z,3.30
2022-09-07T16:46:55.082Z,3.15
2022-09-07T16:49:22.232Z,2.88
2022-09-07T16:51:49.796Z,2.90
2022-09-07T16:54:17.347Z,2.58
2022-09-07T16:56:44.210Z,3.03
2022-09-07T16:59:16.063Z,2.88
2022-09-07T17:01:42.948Z,2.88
2022-09-07T17:04:11.401Z,2.88
2022-09-07T17:06:39.559Z,2.83
2022-09-07T17:09:07.175Z,2.47
2022-09-07T17:11:35.205Z,3.58
2022-09-07T17:14:02.655Z,2.88
2022-09-07T17:16:32.161Z,3.03
2022-09-07T17:21:51.866Z,2.88
2022-09-07T17:24:19.808Z,2.75
2022-09-07T17:26:46.850Z,3.25
2022-09-07T17:29:13.590Z,3.28
2022-09-07T17:34:27.522Z,3.50
2022-09-07T17:36:54.244Z,2.75
2022-09-07T17:39:20.997Z,2.60
2022-09-07T17:41:49.624Z,2.53
2022-09-07T17:44:16.483Z,2.50
2022-09-07T17:46:43.302Z,2.50
2022-09-07T17:49:14.048Z,3.05
2022-09-07T17:51:41.048Z,3.10
2022-09-07T17:54:11.971Z,3.28
2022-09-07T17:56:40.448Z,2.65
2022-09-07T18:01:54.928Z,3.75
2022-09-07T18:04:22.105Z,2.88
2022-09-07T18:06:49.186Z,3.45
2022-09-07T18:09:16.195Z,3.08
2022-09-07T18:11:48.033Z,3.15
2022-09-07T18:14:15.658Z,3.42
2022-09-07T18:16:43.981Z,3.38
2022-09-07T18:19:11.819Z,2.67
2022-09-07T18:21:40.913Z,2.53
2022-09-07T18:24:13.556Z,3.20
2022-09-07T18:26:40.824Z,2.38
2022-09-07T18:29:19.256Z,3.75
2022-09-07T18:34:48.334Z,3.43
2022-09-07T18:37:19.221Z,3.72
2022-09-07T18:39:46.713Z,2.85
2022-09-07T18:42:13.443Z,3.67
2022-09-07T18:47:29.320Z,2.60
2022-09-07T18:49:56.696Z,3.28
2022-09-07T18:55:10.769Z,2.85
2022-09-07T18:57:38.057Z,3.58
2022-09-07T19:00:09.807Z,3.50
2022-09-07T19:02:37.139Z,3.88
2022-09-07T19:07:51.379Z,4.32
2022-09-07T19:10:18.430Z,4.63
2022-09-07T19:12:46.292Z,3.63
2022-09-07T19:15:13.651Z,3.53
2022-09-07T19:17:40.614Z,3.72
2022-09-07T19:20:07.841Z,3.95
2022-09-07T19:22:34.655Z,3.00
2022-09-07T19:25:01.420Z,2.30
2022-09-07T19:27:28.273Z,2.60
2022-09-07T19:29:55.009Z,2.20
2022-09-07T19:32:21.905Z,2.45
2022-09-07T19:34:54.410Z,2.40
2022-09-07T19:37:25.789Z,2.33
2022-09-07T19:39:55.057Z,2.38
2022-09-07T19:42:23.648Z,1.90
2022-09-07T19:44:51.048Z,1.90
2022-09-07T19:47:18.187Z,1.70
2022-09-07T19:49:44.972Z,2.80
2022-09-07T19:52:11.859Z,1.92
2022-09-07T19:54:38.623Z,2.92
2022-09-07T19:57:05.768Z,3.25
2022-09-07T19:59:32.553Z,2.40
2022-09-07T20:01:59.453Z,2.42
2022-09-07T20:04:26.879Z,3.38
2022-09-07T20:06:53.739Z,3.20
2022-09-07T20:09:20.731Z,2.53
2022-09-07T20:11:48.184Z,2.58
2022-09-07T20:14:16.110Z,3.10
2022-09-07T20:16:43.482Z,3.35
2022-09-07T20:19:11.920Z,3.35
2022-09-07T20:21:38.625Z,2.75
2022-09-07T20:24:05.801Z,3.13
2022-09-07T20:26:32.817Z,1.98
2022-09-07T20:29:23.407Z,3.22
2022-09-07T20:31:46.829Z,3.08
2022-09-07T20:34:13.870Z,3.15
2022-09-07T20:36:40.673Z,3.15
2022-09-07T20:39:07.626Z,3.58
2022-09-07T20:41:34.860Z,3.53
2022-09-07T20:44:03.352Z,2.92
2022-09-07T20:46:30.906Z,3.03
2022-09-07T20:48:57.959Z,4.00
2022-09-07T20:51:25.086Z,2.92
2022-09-07T20:53:52.553Z,3.88
2022-09-07T20:56:24.497Z,3.05
2022-09-07T20:59:00.305Z,3.00
2022-09-07T21:01:28.167Z,3.17
2022-09-07T21:03:56.571Z,2.80
2022-09-07T21:06:24.974Z,2.85
2022-09-07T21:08:52.315Z,2.38
2022-09-07T21:11:24.530Z,2.25
2022-09-07T21:14:01.999Z,2.72
2022-09-07T21:16:29.271Z,2.97
2022-09-07T21:18:59.543Z,3.30
2022-09-07T21:21:27.373Z,2.15
2022-09-07T21:23:55.871Z,2.30
2022-09-07T21:26:22.997Z,2.58
2022-09-07T21:29:00.924Z,2.08
2022-09-07T21:31:29.325Z,2.75
2022-09-07T21:33:58.073Z,2.63
2022-09-07T21:36:25.829Z,3.15
2022-09-07T21:38:53.246Z,2.03
2022-09-07T21:41:21.346Z,2.10
2022-09-07T21:43:48.239Z,2.88
2022-09-07T21:46:17.488Z,2.65
2022-09-07T21:48:45.563Z,2.28
2022-09-07T21:51:13.589Z,3.38
2022-09-07T21:53:40.793Z,4.03
2022-09-07T21:56:10.321Z,4.43
2022-09-07T21:58:37.273Z,2.83
2022-09-07T22:01:12.507Z,2.13
2022-09-07T22:03:40.595Z,1.90
2022-09-07T22:06:10.801Z,1.92
2022-09-07T22:08:39.035Z,2.30
2022-09-07T22:11:08.600Z,2.42
2022-09-07T22:13:35.870Z,2.28
2022-09-07T22:16:03.617Z,3.20
2022-09-07T22:18:31.009Z,3.08
2022-09-07T22:21:08.916Z,3.85
2022-09-07T22:23:38.228Z,2.95
2022-09-07T22:26:05.849Z,1.88
2022-09-07T22:28:34.154Z,3.67
2022-09-07T22:31:21.333Z,4.32
2022-09-07T22:33:49.413Z,3.70
2022-09-07T22:36:17.567Z,4.18
2022-09-07T22:38:46.266Z,4.70
2022-09-07T22:41:26.792Z,3.97
2022-09-07T22:43:53.636Z,3.53
2022-09-07T22:46:24.237Z,4.68
2022-09-07T22:48:53.472Z,3.90
2022-09-07T22:51:20.226Z,3.03
2022-09-07T22:53:46.926Z,4.78
2022-09-07T22:56:19.122Z,3.80
2022-09-07T22:58:57.598Z,2.80
2022-09-07T23:01:25.434Z,3.97
2022-09-07T23:03:53.503Z,3.38
2022-09-07T23:06:21.732Z,3.28
2022-09-07T23:08:52.398Z,3.38
2022-09-07T23:11:19.956Z,4.68
2022-09-07T23:14:00.195Z,4.55
2022-09-07T23:16:27.989Z,3.25
2022-09-07T23:18:55.945Z,2.78
2022-09-07T23:21:22.783Z,3.53
2022-09-07T23:23:53.732Z,3.50
2022-09-07T23:28:52.770Z,4.32
2022-09-07T23:31:20.566Z,4.13
2022-09-07T23:33:47.693Z,2.45
2022-09-07T23:36:14.586Z,2.67
2022-09-07T23:38:41.303Z,1.70
2022-09-07T23:41:08.149Z,1.35
2022-09-07T23:43:35.236Z,1.52
2022-09-07T23:46:02.330Z,1.38
2022-09-07T23:48:29.240Z,1.05
2022-09-07T23:50:56.278Z,1.17
2022-09-07T23:53:23.528Z,0.93
2022-09-07T23:55:51.943Z,1.08
2022-09-07T23:58:20.054Z,1.60
